Time;durP1;ratioP1;P1;durP2;ratioP2;P2;SDS_P1;SDS_P2;PMS_P1;PMS_P2;Temp;Humidity;BMP_temperature;BMP_pressure;BME280_temperature;BME280_humidity;BME280_pressure;Samples;Min_cycle;Max_cycle;Signal;HPM_P1;HPM_P2
2023/09/10 00:09:16;;;;;;;5.22;4.72;;;;;;;21.26;99.89;101497.81;20975810;28;20113;-59
2023/09/10 00:19:17;;;;;;;4.68;4.18;;;;;;;21.25;99.97;101501.50;20989162;28;20074;-60
2023/09/10 00:29:19;;;;;;;5.13;4.63;;;;;;;21.23;99.68;101498.09;20986188;28;20084;-59
2023/09/10 00:39:22;;;;;;;5.18;4.68;;;;;;;21.23;99.21;101499.94;20962522;28;20413;-60
2023/09/10 00:49:24;;;;;;;5.63;4.70;;;;;;;21.20;98.59;101484.81;20988151;28;20040;-59
2023/09/10 00:59:28;;;;;;;6.32;5.05;;;;;;;21.20;98.07;101486.69;20989792;28;20053;-59
2023/09/10 01:09:29;;;;;;;4.63;4.23;;;;;;;21.18;97.82;101488.69;20991456;28;20139;-60
2023/09/10 01:19:56;;;;;;;4.80;4.40;;;;;;;21.16;97.41;101494.22;20986603;28;20047;-60
2023/09/10 01:29:57;;;;;;;4.85;4.45;;;;;;;21.13;97.19;101491.81;20941203;28;20589;-59
2023/09/10 01:40:03;;;;;;;4.65;4.25;;;;;;;21.11;97.05;101494.69;20977331;28;20511;-59
2023/09/10 01:50:06;;;;;;;4.60;4.20;;;;;;;21.09;96.96;101490.38;20963339;28;20048;-60
2023/09/10 02:00:09;;;;;;;4.30;3.90;;;;;;;21.08;96.57;101502.22;20962596;28;20056;-59
2023/09/10 02:10:12;;;;;;;4.30;3.90;;;;;;;21.06;96.58;101515.03;20987443;28;20512;-60
2023/09/10 02:20:14;;;;;;;4.40;4.00;;;;;;;21.03;96.20;101496.38;20986643;28;20106;-60
2023/09/10 02:30:16;;;;;;;4.53;4.13;;;;;;;21.03;95.73;101501.78;20952321;28;20044;-59
2023/09/10 02:40:17;;;;;;;4.30;3.90;;;;;;;21.00;95.70;101500.25;20985526;28;20455;-60
2023/09/10 02:50:19;;;;;;;5.47;4.07;;;;;;;20.98;95.46;101505.78;20982889;28;20047;-60
2023/09/10 03:00:25;;;;;;;3.88;3.50;;;;;;;20.95;95.42;101492.53;20952569;28;20105;-59
2023/09/10 03:10:27;;;;;;;5.28;4.20;;;;;;;20.95;95.90;101500.66;20964891;28;20102;-60
2023/09/10 03:20:28;;;;;;;4.15;3.75;;;;;;;20.94;96.17;101496.25;20951860;28;20044;-59
2023/09/10 03:30:30;;;;;;;4.47;3.65;;;;;;;20.93;97.10;101497.25;20981057;28;20067;-60
2023/09/10 03:40:32;;;;;;;3.85;3.53;;;;;;;20.91;97.52;101484.84;20984680;28;20048;-59
2023/09/10 03:50:34;;;;;;;4.43;4.03;;;;;;;20.90;97.59;101481.28;20981009;28;20037;-60
2023/09/10 04:00:37;;;;;;;4.10;3.63;;;;;;;20.89;97.63;101490.41;20998271;28;20493;-59
2023/09/10 04:10:39;;;;;;;3.30;3.00;;;;;;;20.87;97.40;101487.00;20997576;28;20044;-59
2023/09/10 04:20:40;;;;;;;4.10;3.70;;;;;;;20.85;97.14;101483.56;20978873;28;20051;-60
2023/09/10 04:30:42;;;;;;;3.92;3.63;;;;;;;20.83;97.03;101491.81;20978189;28;20067;-59
2023/09/10 04:40:44;;;;;;;3.70;3.40;;;;;;;20.82;96.75;101492.81;20977720;28;20128;-60
2023/09/10 04:50:46;;;;;;;4.65;4.05;;;;;;;20.81;96.55;101501.09;20994299;28;20036;-59
2023/09/10 05:00:49;;;;;;;4.47;4.07;;;;;;;20.75;96.19;101499.75;20993415;28;20052;-59
2023/09/10 05:10:52;;;;;;;3.77;3.40;;;;;;;20.76;95.89;101511.41;20975609;28;20063;-60
2023/09/10 05:20:54;;;;;;;9.55;8.52;;;;;;;20.67;91.24;101496.91;20999683;28;20052;-58
2023/09/10 05:31:02;;;;;;;9.25;8.13;;;;;;;20.21;86.77;101512.72;20983982;28;20098;-58
2023/09/10 05:41:04;;;;;;;9.23;7.82;;;;;;;19.99;88.13;101520.88;20975092;28;20050;-58
2023/09/10 05:51:06;;;;;;;9.63;8.65;;;;;;;19.91;89.29;101527.97;20986801;28;20627;-58
2023/09/10 06:01:09;;;;;;;10.90;9.75;;;;;;;19.86;90.18;101531.88;20968931;28;20563;-59
2023/09/10 06:11:11;;;;;;;9.65;8.65;;;;;;;19.87;91.43;101543.56;20960561;28;20036;-58
2023/09/10 06:21:13;;;;;;;6.40;5.80;;;;;;;19.92;92.19;101535.94;20971016;28;20053;-58
2023/09/10 06:31:14;;;;;;;5.07;4.28;;;;;;;20.12;93.20;101547.69;20964436;28;20052;-58
2023/09/10 06:41:17;;;;;;;4.82;4.05;;;;;;;20.32;93.60;101553.16;20954010;28;20051;-58
2023/09/10 06:51:19;;;;;;;4.15;3.75;;;;;;;20.49;93.68;101565.19;20982277;28;20566;-59
2023/09/10 07:01:21;;;;;;;6.20;4.13;;;;;;;20.63;93.83;101561.25;20977670;28;20119;-59
2023/09/10 07:11:23;;;;;;;5.82;4.65;;;;;;;20.79;94.24;101562.63;20971245;28;20511;-58
2023/09/10 07:21:26;;;;;;;6.30;5.70;;;;;;;20.93;94.89;101564.91;20984652;28;20412;-59
2023/09/10 07:31:28;;;;;;;9.05;5.45;;;;;;;21.10;95.32;101574.19;20997059;28;20122;-58
2023/09/10 07:41:30;;;;;;;5.90;4.97;;;;;;;21.22;95.54;101564.09;20982663;28;20053;-59
2023/09/10 07:51:31;;;;;;;7.75;6.28;;;;;;;21.35;96.12;101582.72;20971566;28;20048;-59
2023/09/10 08:01:33;;;;;;;7.20;6.35;;;;;;;21.46;96.41;101583.59;20995007;28;20040;-59
2023/09/10 08:11:35;;;;;;;6.28;5.68;;;;;;;21.54;96.36;101587.28;20989964;28;20052;-59
2023/09/10 08:21:37;;;;;;;5.30;4.75;;;;;;;21.62;95.60;101591.13;20981223;28;20044;-59
2023/09/10 08:31:38;;;;;;;4.82;4.30;;;;;;;21.66;95.37;101584.47;20989598;28;20052;-59
2023/09/10 08:41:48;;;;;;;5.30;4.70;;;;;;;21.69;95.90;101584.19;20984033;28;20450;-58
2023/09/10 08:51:50;;;;;;;5.30;4.80;;;;;;;21.74;95.95;101584.59;20987439;28;20048;-59
2023/09/10 09:01:52;;;;;;;4.95;4.30;;;;;;;21.79;96.17;101574.16;20955596;28;20044;-59
2023/09/10 09:11:55;;;;;;;4.85;4.22;;;;;;;21.83;95.60;101577.44;20952172;28;20075;-59
2023/09/10 09:21:58;;;;;;;4.90;4.20;;;;;;;21.83;95.70;101562.03;20954289;28;20512;-58
2023/09/10 09:31:59;;;;;;;5.03;4.20;;;;;;;21.84;96.03;101554.75;20938405;28;20125;-58
2023/09/10 09:42:04;;;;;;;4.70;4.30;;;;;;;21.86;96.37;101563.56;20960382;28;20527;-58
2023/09/10 09:52:06;;;;;;;5.28;4.78;;;;;;;21.86;96.60;101561.75;20943611;28;20063;-58
2023/09/10 10:02:15;;;;;;;4.53;4.10;;;;;;;21.86;97.08;101553.59;20972922;28;20044;-59
2023/09/10 10:12:17;;;;;;;5.30;4.80;;;;;;;21.87;96.85;101549.03;20980932;28;20049;-58
2023/09/10 10:22:22;;;;;;;4.47;4.07;;;;;;;21.81;96.43;101534.22;20970353;28;20143;-58
2023/09/10 10:32:32;;;;;;;4.60;4.20;;;;;;;21.84;96.37;101523.09;20975814;28;20115;-59
2023/09/10 10:42:58;;;;;;;5.72;4.90;;;;;;;21.85;97.06;101511.25;20942000;28;20045;-58
2023/09/10 10:53:04;;;;;;;5.22;4.72;;;;;;;21.88;97.24;101507.41;20944403;28;20102;-59
2023/09/10 11:03:12;;;;;;;5.20;4.70;;;;;;;21.83;97.06;101499.69;20918656;28;20076;-59
2023/09/10 11:13:13;;;;;;;4.68;4.18;;;;;;;21.87;96.75;101506.53;20943771;28;20055;-58
2023/09/10 11:23:15;;;;;;;5.20;4.70;;;;;;;21.87;96.58;101500.22;20952043;28;20044;-59
2023/09/10 11:33:30;;;;;;;6.97;5.38;;;;;;;21.86;96.57;101493.09;20950003;28;20044;-59
2023/09/10 11:43:32;;;;;;;5.47;4.97;;;;;;;21.85;97.34;101494.09;20969731;28;20119;-58
2023/09/10 11:53:34;;;;;;;6.00;5.40;;;;;;;21.87;98.07;101490.25;20964074;28;20121;-59
2023/09/10 12:03:35;;;;;;;5.53;5.03;;;;;;;21.90;98.95;101478.28;20978250;28;20048;-59
2023/09/10 12:13:38;;;;;;;5.75;5.15;;;;;;;21.90;98.95;101478.28;20988056;28;20090;-59
2023/09/10 12:23:40;;;;;;;6.97;5.30;;;;;;;21.93;99.53;101482.53;20990734;28;20424;-59
2023/09/10 12:33:42;;;;;;;5.20;4.70;;;;;;;21.98;99.82;101481.09;20967085;28;20060;-59
2023/09/10 12:43:44;;;;;;;6.50;5.22;;;;;;;22.01;100.00;101460.94;20975087;28;20054;-59
2023/09/10 12:53:45;;;;;;;7.18;5.95;;;;;;;22.03;100.00;101461.66;20969124;28;20123;-59
2023/09/10 13:03:47;;;;;;;6.78;5.45;;;;;;;22.05;100.00;101454.22;20982980;28;20060;-59
2023/09/10 13:13:49;;;;;;;6.00;5.28;;;;;;;22.07;100.00;101454.91;20983419;28;20116;-59
2023/09/10 13:23:50;;;;;;;6.43;5.20;;;;;;;22.11;100.00;101455.47;20959936;28;20102;-58
2023/09/10 13:33:52;;;;;;;5.97;5.13;;;;;;;22.13;100.00;101435.34;20947738;28;20049;-59
2023/09/10 13:43:56;;;;;;;7.40;5.53;;;;;;;22.17;100.00;101430.47;20956288;28;20056;-59
2023/09/10 13:53:57;;;;;;;5.63;4.83;;;;;;;22.17;100.00;101436.75;20950051;28;20052;-59
2023/09/10 14:04:02;;;;;;;6.57;5.40;;;;;;;22.19;100.00;101427.63;20970230;28;20628;-58
2023/09/10 14:14:04;;;;;;;7.47;4.72;;;;;;;22.20;100.00;101419.31;20981162;28;20551;-58
2023/09/10 14:24:06;;;;;;;7.05;5.22;;;;;;;22.22;100.00;101414.59;20954364;28;20045;-58
2023/09/10 14:34:08;;;;;;;6.70;5.40;;;;;;;22.23;100.00;101407.31;20929836;28;20072;-62
2023/09/10 14:44:12;;;;;;;5.60;5.03;;;;;;;22.23;100.00;101412.75;20941669;28;20451;-62
2023/09/10 14:54:14;;;;;;;9.07;5.85;;;;;;;22.26;100.00;101402.44;20949488;28;20044;-59
2023/09/10 15:04:16;;;;;;;7.38;5.13;;;;;;;22.24;100.00;101393.59;20948862;28;20068;-60
2023/09/10 15:14:18;;;;;;;6.82;6.10;;;;;;;22.29;100.00;101395.84;20956127;28;20063;-59
2023/09/10 15:24:20;;;;;;;8.88;6.95;;;;;;;22.38;100.00;101392.22;20951600;28;20056;-59
2023/09/10 15:34:21;;;;;;;13.75;10.13;;;;;;;22.55;100.00;101373.44;20936578;28;20049;-59
2023/09/10 15:44:23;;;;;;;11.10;8.40;;;;;;;22.64;100.00;101372.47;20952775;28;20067;-58
2023/09/10 15:54:25;;;;;;;10.48;8.10;;;;;;;22.66;100.00;101362.31;20948793;28;20128;-59
2023/09/10 16:04:26;;;;;;;11.30;7.72;;;;;;;22.67;100.00;101355.88;20952755;28;20055;-59
2023/09/10 16:14:28;;;;;;;10.45;6.55;;;;;;;22.67;100.00;101344.16;20950002;28;20056;-59
2023/09/10 16:24:30;;;;;;;10.70;7.40;;;;;;;22.59;100.00;101342.25;20958341;28;20056;-59
2023/09/10 16:34:31;;;;;;;9.30;6.60;;;;;;;22.52;100.00;101333.88;20974383;28;20037;-58
2023/09/10 16:44:33;;;;;;;10.35;6.70;;;;;;;22.47;100.00;101332.63;20985707;28;20049;-58
2023/09/10 16:54:35;;;;;;;8.80;6.72;;;;;;;22.42;100.00;101333.09;20978255;28;20040;-58
2023/09/10 17:04:37;;;;;;;6.68;5.80;;;;;;;22.38;100.00;101324.41;20983730;28;20055;-58
2023/09/10 17:14:39;;;;;;;6.53;5.82;;;;;;;22.34;100.00;101323.00;20984436;28;20052;-58
2023/09/10 17:24:41;;;;;;;7.47;6.28;;;;;;;22.33;100.00;101328.59;20981776;28;20051;-58
2023/09/10 17:34:43;;;;;;;8.13;6.63;;;;;;;22.28;100.00;101319.03;20993460;28;20067;-59
2023/09/10 17:44:47;;;;;;;9.15;6.65;;;;;;;22.17;100.00;101312.03;20969087;28;20053;-59
2023/09/10 17:54:49;;;;;;;9.05;6.35;;;;;;;22.15;100.00;101334.84;20977700;28;20131;-59
2023/09/10 18:04:50;;;;;;;10.07;6.55;;;;;;;22.12;100.00;101341.47;20977360;28;20048;-59
2023/09/10 18:14:52;;;;;;;6.93;6.05;;;;;;;22.07;100.00;101338.34;20967833;28;20075;-59
2023/09/10 18:24:54;;;;;;;9.40;5.90;;;;;;;22.05;100.00;101340.34;20987069;28;20110;-59
2023/09/10 18:34:56;;;;;;;8.43;5.65;;;;;;;22.03;100.00;101336.94;20983903;28;20045;-59
2023/09/10 18:44:57;;;;;;;8.68;6.13;;;;;;;21.98;100.00;101340.13;20982569;28;20049;-59
2023/09/10 18:54:59;;;;;;;8.38;5.75;;;;;;;21.95;100.00;101339.56;20983453;28;20045;-59
2023/09/10 19:05:01;;;;;;;7.50;6.35;;;;;;;21.93;100.00;101338.88;20984062;28;20094;-59
2023/09/10 19:15:03;;;;;;;8.20;6.97;;;;;;;21.90;100.00;101336.47;20993889;28;20097;-59
2023/09/10 19:25:05;;;;;;;8.10;6.28;;;;;;;21.86;100.00;101330.47;20984066;28;20045;-59
2023/09/10 19:35:07;;;;;;;9.35;6.78;;;;;;;21.82;100.00;101340.78;20982353;28;20047;-59
2023/09/10 19:45:12;;;;;;;9.65;6.93;;;;;;;21.80;100.00;101331.09;20999430;28;20037;-59
2023/09/10 19:55:14;;;;;;;8.13;6.50;;;;;;;21.77;100.00;101337.69;20998597;28;20041;-59
2023/09/10 20:05:16;;;;;;;8.13;5.78;;;;;;;21.75;100.00;101342.41;20997625;28;20512;-59
2023/09/10 20:15:18;;;;;;;8.20;6.20;;;;;;;21.72;100.00;101346.25;20979582;28;20040;-59
2023/09/10 20:25:20;;;;;;;9.50;6.88;;;;;;;21.69;100.00;101340.31;20996898;28;20114;-59
2023/09/10 20:35:21;;;;;;;7.68;6.68;;;;;;;21.67;100.00;101337.72;20996180;28;20040;-58
2023/09/10 20:45:23;;;;;;;8.07;6.60;;;;;;;21.64;100.00;101327.19;20995556;28;20060;-59
2023/09/10 20:55:25;;;;;;;7.50;6.43;;;;;;;21.61;100.00;101322.06;20990679;28;20041;-59
2023/09/10 21:05:26;;;;;;;7.07;6.25;;;;;;;21.60;100.00;101325.75;20983298;28;20084;-59
2023/09/10 21:15:28;;;;;;;8.38;6.40;;;;;;;21.57;100.00;101310.66;20985819;28;20427;-59
2023/09/10 21:25:30;;;;;;;8.57;7.15;;;;;;;21.56;100.00;101306.25;20973004;28;20467;-59
2023/09/10 21:35:32;;;;;;;9.07;8.18;;;;;;;21.55;100.00;101301.81;20981464;28;20514;-59
2023/09/10 21:45:37;;;;;;;10.68;7.70;;;;;;;21.54;100.00;101289.28;20962066;28;20161;-59
2023/09/10 21:55:39;;;;;;;8.70;7.50;;;;;;;21.53;100.00;101284.88;20977568;28;20045;-59
2023/09/10 22:05:40;;;;;;;10.75;7.53;;;;;;;21.52;100.00;101275.03;20979820;28;20123;-59
2023/09/10 22:15:45;;;;;;;9.50;7.57;;;;;;;21.50;100.00;101271.63;20987520;28;20520;-59
2023/09/10 22:25:48;;;;;;;9.90;8.05;;;;;;;21.49;100.00;101269.94;20973525;28;20109;-59
2023/09/10 22:35:50;;;;;;;8.68;7.68;;;;;;;21.48;100.00;101260.09;20959091;28;20037;-59
2023/09/10 22:45:51;;;;;;;12.02;8.05;;;;;;;21.49;100.00;101258.25;20972039;28;20044;-59
2023/09/10 22:55:53;;;;;;;8.52;7.70;;;;;;;21.46;100.00;101245.84;20970738;28;20407;-59
2023/09/10 23:05:58;;;;;;;;;;;;;;;21.44;100.00;101239.72;20974240;28;20492;-59
2023/09/10 23:16:00;;;;;;;10.85;8.43;;;;;;;21.42;100.00;101241.75;20972839;28;19928;-59
2023/09/10 23:26:02;;;;;;;9.30;7.57;;;;;;;21.41;100.00;101240.03;20971093;28;20074;-59
2023/09/10 23:36:05;;;;;;;8.60;7.68;;;;;;;21.41;100.00;101231.91;20970303;28;20500;-59
2023/09/10 23:46:07;;;;;;;8.70;7.28;;;;;;;21.38;100.00;101207.84;20971480;28;20084;-59
2023/09/10 23:56:08;;;;;;;8.40;7.60;;;;;;;21.37;100.00;101206.97;20970130;28;20055;-59
